Vrsac, Serbia
Current Conditions -  °F | °C
As of 8:00 PM on Friday 28 Nov 2014 (Local Time) from LYVR Reporting Station
Broken Clouds Broken Clouds  
Wind Chill: 37°   Ceiling: 4000
Heat Index: 45°   Visibility: 6mi
Dew Point: 36°   Wind: 16mph
Humidity: 71%   Direction: 50°NE
Pressure: 30.09"   Gusts: 30mph
Location:  45.13°N, 21.3°E
Report Text: LYVR 281800Z 05014G26KT 9999 BKN040 07/02 Q1019 NOSIG
Loading
Personal Weather Stations






























Interactive Weather Map New forecast layout! Learn more

10-Day Weather Forecast

Advertisements
Track Severe Weather on mobile